Time;durP1;ratioP1;P1;durP2;ratioP2;P2;SDS_P1;SDS_P2;PMS_P1;PMS_P2;Temp;Humidity;BMP_temperature;BMP_pressure;BME280_temperature;BME280_humidity;BME280_pressure;Samples;Min_cycle;Max_cycle;Signal;HPM_P1;HPM_P2
2022/12/30 00:01:03;;;;;;;;;13.67;10.33;;;;;8.45;74.17;101027.69;4974509;28;45399;-47
2022/12/30 00:03:29;;;;;;;;;20.00;16.33;;;;;8.38;74.58;101024.69;4976013;28;45236;-52
2022/12/30 00:05:54;;;;;;;;;16.67;11.67;;;;;8.34;75.12;101011.78;4974751;28;45307;-46
2022/12/30 00:11:04;;;;;;;;;15.00;11.67;;;;;8.32;75.23;101014.56;4974340;28;45513;-51
2022/12/30 00:33:07;;;;;;;;;10.00;5.67;;;;;8.11;75.90;101003.91;4977121;28;45204;-50
2022/12/30 00:35:34;;;;;;;;;9.00;9.00;;;;;8.08;76.42;100990.03;4977111;28;45421;-50
2022/12/30 00:37:59;;;;;;;;;10.00;7.00;;;;;8.06;76.20;100986.69;4977584;28;45359;-46
2022/12/30 00:40:24;;;;;;;;;10.00;9.00;;;;;8.03;77.10;100985.13;4976985;28;48764;-47
2022/12/30 00:43:08;;;;;;;;;16.33;8.67;;;;;8.05;75.77;100977.03;4978008;28;45324;-49
2022/12/30 00:45:39;;;;;;;;;14.67;9.67;;;;;8.06;76.07;100981.41;4977314;28;45432;-47
2022/12/30 00:56:17;;;;;;;;;10.33;8.67;;;;;7.94;76.35;100991.16;4976850;28;45296;-47
2022/12/30 00:58:43;;;;;;;;;7.00;6.00;;;;;7.94;77.13;100986.72;4978455;28;45649;-49
2022/12/30 01:01:08;;;;;;;;;10.67;6.00;;;;;7.93;76.30;100985.03;4976869;28;46164;-47
2022/12/30 01:03:33;;;;;;;;;13.00;6.67;;;;;7.88;76.41;100963.38;4976767;28;45270;-48
2022/12/30 01:06:04;;;;;;;;;8.33;7.33;;;;;7.95;77.52;100967.19;4976850;28;45284;-48
2022/12/30 01:08:31;;;;;;;;;7.67;6.00;;;;;7.93;76.22;100971.78;4976952;28;45409;-49
2022/12/30 01:10:56;;;;;;;;;7.33;6.00;;;;;7.94;76.13;100964.69;4976696;28;47300;-48
2022/12/30 01:13:22;;;;;;;;;10.67;5.67;;;;;7.93;77.15;100963.00;4976512;28;45387;-49
2022/12/30 01:15:47;;;;;;;;;9.33;6.67;;;;;7.89;77.08;100964.22;4976557;28;45591;-51
2022/12/30 01:18:12;;;;;;;;;8.33;8.00;;;;;7.93;76.99;100963.84;4977377;28;45342;-50
2022/12/30 01:20:38;;;;;;;;;10.67;7.33;;;;;7.93;77.09;100957.72;4976529;28;46144;-49
2022/12/30 01:23:03;;;;;;;;;7.33;6.00;;;;;7.90;77.14;100953.50;4976547;28;45411;-49
2022/12/30 01:25:28;;;;;;;;;10.00;10.00;;;;;7.93;76.84;100947.13;4976888;28;45307;-48
2022/12/30 01:27:54;;;;;;;;;10.00;6.00;;;;;7.94;77.42;100946.97;4976466;28;45497;-48
2022/12/30 01:30:19;;;;;;;;;13.50;7.75;;;;;7.94;76.35;100948.78;4976332;28;45893;-47
2022/12/30 01:32:45;;;;;;;;;6.00;5.00;;;;;7.88;77.02;100936.03;4975652;28;45325;-54
2022/12/30 01:35:11;;;;;;;;;6.00;4.67;;;;;7.91;76.54;100949.03;4976624;28;45927;-56
2022/12/30 01:37:36;;;;;;;;;11.33;6.00;;;;;7.90;76.84;100948.19;4977234;28;45390;-46
2022/12/30 01:40:02;;;;;;;;;10.00;7.25;;;;;7.85;77.18;100938.94;4976242;28;46551;-49
2022/12/30 01:42:30;;;;;;;;;0.00;0.00;;;;;7.89;76.46;100948.31;4976258;28;45391;-49
2022/12/30 01:45:13;;;;;;;;;8.67;5.00;;;;;7.85;76.92;100947.72;4976205;28;45361;-50
2022/12/30 01:47:56;;;;;;;;;6.50;4.00;;;;;7.85;77.00;100949.53;4976352;28;45396;-49
2022/12/30 01:50:27;;;;;;;;;9.00;5.00;;;;;7.82;76.77;100955.91;4975957;28;45366;-47
2022/12/30 01:52:58;;;;;;;;;9.33;8.00;;;;;7.79;77.18;100956.16;4976257;28;45482;-51
2022/12/30 01:55:31;;;;;;;;;11.75;6.00;;;;;7.76;76.83;100956.41;4976309;28;45371;-47
2022/12/30 01:58:00;;;;;;;;;9.00;9.00;;;;;7.77;77.39;100946.66;4976222;28;45268;-48
2022/12/30 02:00:25;;;;;;;;;6.67;4.33;;;;;7.73;76.87;100933.66;4975971;28;46109;-52
2022/12/30 02:02:52;;;;;;;;;10.00;5.33;;;;;7.71;77.69;100937.38;4976438;28;45376;-49
2022/12/30 02:05:21;;;;;;;;;16.00;8.50;;;;;7.71;77.77;100940.03;4976789;28;45433;-55
2022/12/30 02:07:59;;;;;;;;;6.00;4.00;;;;;7.70;77.72;100939.19;4975540;28;45563;-59
2022/12/30 02:10:25;;;;;;;;;11.00;6.00;;;;;7.67;77.18;100942.13;4976321;28;45360;-49
2022/12/30 02:12:51;;;;;;;;;8.33;5.67;;;;;7.64;77.82;100945.00;4976250;28;45471;-60
2022/12/30 02:15:16;;;;;;;;;7.00;5.75;;;;;7.64;78.77;100945.00;4977240;28;45305;-50
2022/12/30 02:18:08;;;;;;;;;5.67;5.67;;;;;7.59;78.71;100939.25;4976890;28;45264;-60
2022/12/30 02:20:51;;;;;;;;;5.00;5.00;;;;;7.62;79.29;100954.84;4976070;28;46313;-53
2022/12/30 02:23:32;;;;;;;;;11.25;9.75;;;;;7.63;78.39;100942.50;4975669;28;45382;-50
2022/12/30 02:26:16;;;;;;;;;11.67;6.00;;;;;7.66;79.33;100955.47;4975941;28;45500;-59
2022/12/30 02:29:02;;;;;;;;;10.50;7.75;;;;;7.66;78.56;100940.41;4975939;28;45408;-60
2022/12/30 02:31:53;;;;;;;;;7.67;5.33;;;;;7.66;79.86;100939.56;4975654;28;46431;-61
2022/12/30 02:34:52;;;;;;;;;11.75;7.75;;;;;7.62;79.35;100938.97;4975738;28;45455;-60
2022/12/30 02:37:45;;;;;;;;;11.75;8.50;;;;;7.65;79.65;100933.44;4975928;28;45221;-50
2022/12/30 02:40:25;;;;;;;;;8.00;5.00;;;;;7.63;79.23;100931.91;4976056;28;45215;-53
2022/12/30 02:45:52;;;;;;;;;10.50;6.00;;;;;7.62;80.32;100923.09;4975524;28;45288;-49
2022/12/30 02:48:21;;;;;;;;;12.50;7.50;;;;;7.59;79.79;100922.50;4975544;28;45567;-58
2022/12/30 02:53:38;;;;;;;;;8.75;7.75;;;;;7.57;79.91;100916.50;4975338;28;45882;-50
2022/12/30 02:56:03;;;;;;;;;13.25;7.75;;;;;7.55;81.19;100921.09;4975381;28;46035;-59
2022/12/30 02:58:34;;;;;;;;;10.50;6.00;;;;;7.44;79.92;100903.41;4975270;28;45378;-60
2022/12/30 03:04:21;;;;;;;;;15.50;7.50;;;;;7.44;81.63;100888.34;4975200;28;45432;-56
2022/12/30 03:06:52;;;;;;;;;12.00;8.25;;;;;7.54;81.27;100899.03;4975000;28;45371;-50
2022/12/30 03:09:29;;;;;;;;;9.00;9.00;;;;;7.52;82.07;100886.91;4975511;28;45247;-51
2022/12/30 03:11:57;;;;;;;;;11.75;8.25;;;;;7.58;81.32;100886.41;4975492;28;45245;-59
2022/12/30 03:14:30;;;;;;;;;15.50;9.50;;;;;7.55;82.66;100870.78;4975034;28;46310;-54
2022/12/30 03:17:06;;;;;;;;;8.50;8.50;;;;;7.61;81.26;100884.34;4977043;28;45331;-58
2022/12/30 03:19:38;;;;;;;;;4.75;1.75;;;;;7.60;81.98;100890.63;4975119;28;45478;-48
2022/12/30 03:22:06;;;;;;;;;10.25;8.00;;;;;7.49;80.85;100857.06;4975300;28;45477;-49
2022/12/30 03:27:22;;;;;;;;;11.50;7.50;;;;;7.57;81.68;100879.44;4974745;28;45314;-49
2022/12/30 03:29:53;;;;;;;;;12.50;12.00;;;;;7.56;81.91;100875.94;4974913;28;45423;-50
2022/12/30 03:32:21;;;;;;;;;15.50;8.50;;;;;7.41;82.89;100854.19;4975018;28;45406;-48
2022/12/30 03:34:47;;;;;;;;;12.25;10.00;;;;;7.54;83.46;100874.38;4974632;28;46303;-48
2022/12/30 03:37:26;;;;;;;;;20.00;16.00;;;;;7.54;83.40;100877.84;4974843;28;45358;-48
2022/12/30 03:40:12;;;;;;;;;15.00;12.75;;;;;7.57;83.06;100876.78;4975075;28;45378;-48
2022/12/30 03:42:37;;;;;;;;;17.75;12.00;;;;;7.60;82.84;100869.44;4975065;28;45274;-52
2022/12/30 03:45:04;;;;;;;;;23.00;10.00;;;;;7.62;83.50;100875.44;4974377;28;46259;-54
2022/12/30 03:47:29;;;;;;;;;11.50;7.00;;;;;7.63;83.61;100861.25;4974856;28;45444;-55
2022/12/30 03:49:55;;;;;;;;;9.00;9.00;;;;;7.61;82.52;100871.09;4974590;28;45330;-49
2022/12/30 03:52:21;;;;;;;;;4.50;4.50;;;;;7.61;80.82;100859.69;4974930;28;45352;-53
2022/12/30 03:54:47;;;;;;;;;8.50;5.50;;;;;7.61;82.68;100863.16;4973947;28;47005;-50
2022/12/30 03:57:13;;;;;;;;;8.00;6.00;;;;;7.62;82.76;100850.75;4974475;27;45288;-48
2022/12/30 03:59:39;;;;;;;;;9.75;5.25;;;;;7.59;82.48;100836.00;4974606;28;45471;-48
2022/12/30 04:02:04;;;;;;;;;6.50;5.75;;;;;7.59;83.18;100836.00;4975099;28;45502;-49
2022/12/30 04:04:30;;;;;;;;;9.50;6.00;;;;;7.58;82.81;100830.81;4974412;28;47243;-47
2022/12/30 04:06:55;;;;;;;;;13.75;8.75;;;;;7.59;83.88;100825.41;4974509;28;45370;-50
2022/12/30 04:09:21;;;;;;;;;7.50;6.00;;;;;7.61;82.49;100826.09;4974717;28;45620;-50
2022/12/30 04:11:46;;;;;;;;;9.00;6.00;;;;;7.63;82.42;100826.84;4974796;28;45453;-49
2022/12/30 04:14:11;;;;;;;;;11.25;9.00;;;;;7.60;84.18;100820.94;4974120;28;46929;-48
2022/12/30 04:16:37;;;;;;;;;9.25;7.50;;;;;7.62;83.59;100811.06;4974075;28;49043;-47
2022/12/30 04:19:03;;;;;;;;;8.75;6.50;;;;;7.60;83.71;100813.84;4974589;28;45276;-52
2022/12/30 04:21:28;;;;;;;;;13.00;6.50;;;;;7.61;83.02;100807.56;4974626;28;45452;-50
2022/12/30 04:23:53;;;;;;;;;12.75;10.00;;;;;7.64;83.23;100811.78;4974120;28;46113;-47
2022/12/30 04:26:19;;;;;;;;;9.25;8.75;;;;;7.64;83.87;100815.28;4974173;28;45379;-49
2022/12/30 04:28:44;;;;;;;;;10.25;7.75;;;;;7.63;83.21;100818.88;4973943;28;45545;-53
2022/12/30 04:31:09;;;;;;;;;14.25;8.75;;;;;7.66;84.41;100820.44;4974594;28;45380;-51
2022/12/30 04:33:34;;;;;;;;;12.75;10.25;;;;;7.63;83.31;100807.47;4974140;28;46225;-58
2022/12/30 04:36:00;;;;;;;;;8.67;8.33;;;;;7.62;83.62;100796.00;4974168;28;45363;-57
2022/12/30 04:38:25;;;;;;;;;9.75;7.00;;;;;7.62;84.33;100793.34;4974342;28;45241;-54
2022/12/30 04:40:51;;;;;;;;;10.75;8.75;;;;;7.65;83.89;100806.34;4974220;28;45509;-54
2022/12/30 04:43:16;;;;;;;;;8.50;7.25;;;;;7.65;84.49;100801.06;4974033;28;45433;-57
2022/12/30 04:45:43;;;;;;;;;9.00;6.33;;;;;7.66;83.92;100793.94;4973768;28;45405;-53
2022/12/30 04:48:08;;;;;;;;;11.00;6.00;;;;;7.71;83.60;100795.28;4973907;28;45216;-59
2022/12/30 04:50:34;;;;;;;;;4.67;2.67;;;;;7.71;84.78;100782.03;4974013;28;45363;-59
2022/12/30 04:52:59;;;;;;;;;9.33;7.33;;;;;7.74;84.29;100781.75;4973785;28;46214;-50
2022/12/30 04:55:24;;;;;;;;;8.67;5.00;;;;;7.73;84.55;100769.50;4974198;28;45354;-58
2022/12/30 04:57:50;;;;;;;;;11.00;5.00;;;;;7.78;83.65;100784.16;4973970;28;45393;-48
2022/12/30 05:00:15;;;;;;;;;5.33;5.33;;;;;7.77;84.48;100762.13;4973991;28;45304;-49
2022/12/30 05:02:41;;;;;;;;;9.00;5.67;;;;;7.69;84.24;100741.59;4973497;28;46326;-49
2022/12/30 05:05:06;;;;;;;;;5.33;5.00;;;;;7.83;84.97;100742.22;4973726;28;45477;-50
2022/12/30 05:07:32;;;;;;;;;11.50;5.75;;;;;7.73;84.76;100727.13;4975647;28;45509;-52
2022/12/30 05:09:57;;;;;;;;;8.67;6.00;;;;;7.82;84.20;100743.22;4977138;28;45402;-49
2022/12/30 05:12:23;;;;;;;;;8.33;6.00;;;;;7.86;84.70;100744.63;4976757;28;46906;-49
2022/12/30 05:14:48;;;;;;;;;3.33;3.33;;;;;7.86;84.91;100734.88;4976632;28;45371;-46
2022/12/30 05:17:13;;;;;;;;;7.33;7.00;;;;;7.84;85.17;100728.88;4976913;28;45278;-50
2022/12/30 05:19:38;;;;;;;;;13.67;9.67;;;;;7.83;84.66;100702.50;4978319;28;45608;-50
2022/12/30 05:22:04;;;;;;;;;7.33;5.00;;;;;7.89;84.86;100708.13;4976484;28;50882;-51
2022/12/30 05:27:13;;;;;;;;;4.67;4.00;;;;;7.95;85.46;100699.66;4975875;28;45345;-50
2022/12/30 05:29:39;;;;;;;;;11.00;5.67;;;;;7.96;85.55;100693.41;4976854;28;45460;-49
2022/12/30 05:32:04;;;;;;;;;6.00;3.33;;;;;7.98;84.59;100703.88;4976263;28;45472;-51
2022/12/30 05:34:29;;;;;;;;;4.00;3.33;;;;;7.97;85.13;100705.69;4976584;28;45357;-49
2022/12/30 05:36:55;;;;;;;;;4.67;4.67;;;;;7.97;85.58;100699.53;4976553;28;45276;-50
2022/12/30 05:39:20;;;;;;;;;4.33;4.33;;;;;8.01;84.68;100700.97;4976881;28;45396;-50
2022/12/30 05:41:45;;;;;;;;;4.67;2.67;;;;;8.04;84.77;100686.59;4976457;28;45387;-48
2022/12/30 05:44:11;;;;;;;;;5.33;3.00;;;;;8.07;85.53;100683.69;4974862;28;46349;-48
2022/12/30 05:46:36;;;;;;;;;7.33;5.67;;;;;7.97;85.38;100646.56;4976535;28;45446;-48
2022/12/30 05:49:03;;;;;;;;;11.67;4.67;;;;;8.10;84.81;100673.69;4975873;28;45228;-48
2022/12/30 05:51:29;;;;;;;;;5.67;3.67;;;;;8.13;86.02;100662.81;4975025;28;45399;-48
2022/12/30 05:53:54;;;;;;;;;3.00;3.00;;;;;8.14;84.66;100648.59;4976255;28;45628;-48
2022/12/30 05:56:19;;;;;;;;;10.00;5.00;;;;;8.15;84.58;100650.25;4976170;28;45846;-49
2022/12/30 05:58:45;;;;;;;;;2.00;2.00;;;;;8.17;85.05;100640.34;4976435;28;45294;-56
2022/12/30 06:01:10;;;;;;;;;6.00;3.67;;;;;8.11;85.30;100617.06;4975979;28;48499;-50
2022/12/30 06:03:35;;;;;;;;;5.67;3.33;;;;;8.20;85.14;100621.53;4976206;28;45196;-49
2022/12/30 06:06:04;;;;;;;;;9.33;2.00;;;;;8.24;84.78;100622.13;4976202;28;45294;-49
2022/12/30 06:08:29;;;;;;;;;2.00;2.00;;;;;8.19;85.10;100596.03;4976206;28;45462;-49
2022/12/30 06:10:55;;;;;;;;;1.00;1.00;;;;;8.32;85.24;100610.84;4975860;28;46111;-48
2022/12/30 06:13:20;;;;;;;;;8.33;6.00;;;;;8.35;85.34;100603.47;4976039;28;45346;-49
2022/12/30 06:15:46;;;;;;;;;5.67;2.00;;;;;8.35;84.74;100607.94;4976137;28;45368;-51
2022/12/30 06:18:11;;;;;;;;;4.67;3.33;;;;;8.39;85.31;100591.66;4975682;28;45328;-51
2022/12/30 06:20:36;;;;;;;;;2.00;2.00;;;;;8.38;84.95;100581.16;4975751;28;48977;-46
2022/12/30 06:23:03;;;;;;;;;2.67;2.00;;;;;8.44;85.55;100584.13;4976185;28;45442;-49
2022/12/30 06:25:29;;;;;;;;;9.33;5.00;;;;;8.43;85.15;100585.09;4976068;28;45219;-52
2022/12/30 06:27:54;;;;;;;;;8.00;4.33;;;;;8.47;85.28;100581.22;4976075;28;45416;-49
2022/12/30 06:30:19;;;;;;;;;4.33;4.33;;;;;8.47;85.50;100570.59;4975828;28;45991;-51
2022/12/30 06:32:46;;;;;;;;;6.00;4.00;;;;;8.44;84.69;100546.19;4975772;28;45312;-48
2022/12/30 06:35:12;;;;;;;;;5.67;4.00;;;;;8.56;84.58;100563.63;4975900;28;45378;-50
2022/12/30 06:37:37;;;;;;;;;5.00;4.00;;;;;8.56;84.90;100553.03;4976102;28;45366;-52
2022/12/30 06:40:03;;;;;;;;;2.33;1.00;;;;;8.61;84.53;100556.09;4975971;28;46153;-59
2022/12/30 06:42:28;;;;;;;;;7.67;3.00;;;;;8.57;84.89;100537.97;4975827;28;45345;-60
2022/12/30 06:44:54;;;;;;;;;13.33;6.00;;;;;8.61;84.19;100529.59;4976873;28;45459;-56
2022/12/30 06:47:19;;;;;;;;;9.33;5.00;;;;;8.65;84.42;100538.94;4975966;28;45423;-54
2022/12/30 06:49:44;;;;;;;;;4.33;4.33;;;;;8.67;84.16;100518.41;4975734;28;46003;-54
2022/12/30 06:52:10;;;;;;;;;5.67;2.00;;;;;8.68;84.53;100516.59;4975605;28;45177;-57
2022/12/30 06:54:35;;;;;;;;;6.00;4.00;;;;;8.70;84.58;100518.13;4975615;28;45390;-55
2022/12/30 06:57:00;;;;;;;;;10.00;5.00;;;;;8.72;84.95;100512.69;4976019;28;45407;-49
2022/12/30 06:59:26;;;;;;;;;4.00;3.67;;;;;8.75;84.53;100504.44;4975268;28;46195;-51
2022/12/30 07:01:51;;;;;;;;;0.00;0.00;;;;;8.78;84.46;100506.84;4977217;28;45304;-53
2022/12/30 07:04:16;;;;;;;;;5.00;4.33;;;;;8.79;84.06;100495.25;4975800;28;45435;-48
2022/12/30 07:06:41;;;;;;;;;11.00;8.33;;;;;8.77;84.59;100488.41;4975576;28;45422;-50
2022/12/30 07:09:07;;;;;;;;;5.33;5.00;;;;;8.88;84.40;100483.78;4974924;28;52447;-49
2022/12/30 07:11:32;;;;;;;;;6.00;4.00;;;;;8.85;84.37;100477.91;4975446;28;45408;-55
2022/12/30 07:13:57;;;;;;;;;8.33;5.00;;;;;8.91;84.70;100466.75;4975311;28;45679;-60
2022/12/30 07:16:24;;;;;;;;;6.00;5.00;;;;;8.93;83.87;100465.63;4975492;28;45468;-56
2022/12/30 07:18:50;;;;;;;;;4.33;2.00;;;;;8.95;84.35;100457.53;4974982;28;46499;-51
2022/12/30 07:21:16;;;;;;;;;5.33;2.67;;;;;8.97;83.59;100461.72;4975164;28;45207;-52
2022/12/30 07:23:41;;;;;;;;;3.67;1.67;;;;;8.99;82.69;100445.66;4975214;28;45369;-50
2022/12/30 07:26:07;;;;;;;;;20.67;14.00;;;;;8.99;83.07;100440.34;4975325;28;45342;-48
2022/12/30 07:28:32;;;;;;;;;11.00;6.00;;;;;9.03;83.29;100428.47;4974903;28;45445;-51
2022/12/30 07:30:58;;;;;;;;;1.00;1.00;;;;;9.05;82.95;100450.38;4973351;28;47497;-55
2022/12/30 07:33:23;;;;;;;;;6.33;2.67;;;;;9.07;82.50;100432.50;4975111;28;45285;-54
2022/12/30 07:35:48;;;;;;;;;5.33;3.33;;;;;9.08;82.82;100438.63;4975173;28;45268;-49
2022/12/30 07:38:14;;;;;;;;;1.00;1.00;;;;;9.05;83.04;100429.13;4974780;28;46205;-51
2022/12/30 07:40:39;;;;;;;;;3.67;3.67;;;;;9.10;82.36;100440.19;4975048;28;45300;-56
2022/12/30 07:43:04;;;;;;;;;13.67;6.00;;;;;9.12;81.72;100419.63;4974842;28;45402;-58
2022/12/30 07:45:30;;;;;;;;;24.67;22.67;;;;;8.99;81.96;100392.59;4974930;28;45297;-58
2022/12/30 07:47:58;;;;;;;;;8.00;2.00;;;;;9.15;81.52;100419.34;4974526;28;46420;-56
2022/12/30 07:50:23;;;;;;;;;3.00;1.00;;;;;9.17;81.84;100414.72;4973447;28;45229;-49
2022/12/30 07:52:48;;;;;;;;;4.33;1.33;;;;;9.20;81.53;100425.03;4974964;28;45293;-52
2022/12/30 07:55:14;;;;;;;;;3.33;1.00;;;;;9.22;81.19;100420.41;4974968;28;45400;-49
2022/12/30 07:57:39;;;;;;;;;3.00;3.00;;;;;9.22;80.96;100420.41;4974643;28;46072;-50
2022/12/30 08:00:05;;;;;;;;;2.00;0.67;;;;;9.27;80.93;100411.19;4974580;28;45480;-50
2022/12/30 08:02:30;;;;;;;;;2.67;2.67;;;;;9.26;81.00;100415.66;4974639;28;45247;-52
2022/12/30 08:04:56;;;;;;;;;4.67;2.00;;;;;9.17;80.72;100414.72;4974704;28;45419;-50
2022/12/30 08:07:21;;;;;;;;;3.33;2.00;;;;;9.22;80.32;100409.78;4975603;28;51653;-60
2022/12/30 08:09:46;;;;;;;;;1.33;1.00;;;;;9.30;80.08;100425.00;4989698;28;45249;-51
2022/12/30 08:12:12;;;;;;;;;2.67;2.00;;;;;9.32;80.50;100406.28;4975139;28;45424;-61
2022/12/30 08:14:37;;;;;;;;;2.00;1.33;;;;;9.35;79.97;100387.38;4973128;28;46111;-50
2022/12/30 08:17:03;;;;;;;;;3.50;0.00;;;;;9.36;79.93;100386.44;4974494;28;45322;-59
2022/12/30 08:19:28;;;;;;;;;1.00;1.00;;;;;9.34;79.74;100383.06;4974343;28;45356;-61
2022/12/30 08:21:54;;;;;;;;;13.00;9.00;;;;;9.34;79.77;100380.41;4974468;28;45453;-49
2022/12/30 08:24:19;;;;;;;;;2.00;2.00;;;;;9.26;79.38;100362.56;4974618;28;45362;-53
2022/12/30 08:26:45;;;;;;;;;5.00;3.00;;;;;9.34;79.81;100367.97;4974095;28;45439;-57
2022/12/30 08:29:10;;;;;;;;;5.67;3.00;;;;;9.34;79.80;100365.31;4974532;28;45379;-53
2022/12/30 08:31:35;;;;;;;;;2.00;2.00;;;;;8.97;80.50;100312.28;4974685;28;45426;-60
2022/12/30 08:34:01;;;;;;;;;1.67;1.67;;;;;9.34;81.53;100364.50;4975395;28;45286;-48
2022/12/30 08:36:28;;;;;;;;;3.00;3.00;;;;;9.27;80.83;100356.31;4974494;28;46256;-53
2022/12/30 08:38:56;;;;;;;;;2.67;2.00;;;;;9.32;80.57;100355.84;4974324;28;45435;-55
2022/12/30 08:41:31;;;;;;;;;2.00;1.33;;;;;9.27;81.85;100347.47;4974829;28;45356;-48
2022/12/30 08:43:57;;;;;;;;;27.33;17.00;;;;;9.28;82.69;100338.56;4977666;28;45344;-60
2022/12/30 08:46:25;;;;;;;;;5.00;3.00;;;;;9.23;82.30;100329.22;4977383;28;47074;-60
2022/12/30 08:48:50;;;;;;;;;6.00;1.67;;;;;9.22;82.49;100327.53;4977041;28;45429;-59
2022/12/30 08:51:15;;;;;;;;;6.67;3.00;;;;;9.20;82.21;100315.41;4977151;28;45421;-56
2022/12/30 08:53:41;;;;;;;;;3.00;1.67;;;;;9.19;83.05;100311.09;4977687;28;45326;-60
2022/12/30 08:56:12;;;;;;;;;3.33;1.67;;;;;9.14;82.76;100318.63;4977297;28;46192;-58
2022/12/30 08:58:37;;;;;;;;;3.00;1.33;;;;;9.12;82.71;100318.78;4977198;28;45421;-54
2022/12/30 09:01:29;;;;;;;;;2.00;2.00;;;;;9.09;83.00;100297.03;4977271;28;45290;-50
2022/12/30 09:03:55;;;;;;;;;5.00;1.00;;;;;9.00;83.76;100286.31;4977188;28;45390;-48
2022/12/30 09:06:23;;;;;;;;;6.00;2.00;;;;;8.89;83.71;100269.75;4976482;28;47143;-51
2022/12/30 09:08:50;;;;;;;;;5.33;2.00;;;;;8.97;84.84;100291.94;4976377;28;45424;-57
2022/12/30 09:11:23;;;;;;;;;4.67;3.00;;;;;8.92;86.15;100278.25;4976731;28;45402;-56
2022/12/30 09:13:49;;;;;;;;;5.00;3.00;;;;;8.87;85.67;100263.78;4976881;28;45345;-56
2022/12/30 09:16:17;;;;;;;;;6.00;3.67;;;;;8.88;86.25;100257.47;4976426;28;46428;-60
2022/12/30 09:18:44;;;;;;;;;4.33;2.00;;;;;8.86;85.64;100238.22;4976742;28;45300;-61
2022/12/30 09:21:09;;;;;;;;;1.00;1.00;;;;;8.84;85.08;100238.38;4976601;28;45521;-58
2022/12/30 09:23:35;;;;;;;;;1.00;1.00;;;;;8.82;86.71;100224.44;4976689;28;45255;-50
2022/12/30 09:26:02;;;;;;;;;5.67;2.00;;;;;8.80;87.36;100226.38;4976618;28;47732;-51
2022/12/30 09:28:27;;;;;;;;;1.67;1.67;;;;;8.83;86.82;100227.91;4976353;28;45435;-58
2022/12/30 09:30:52;;;;;;;;;2.00;1.67;;;;;8.82;86.94;100224.44;4976527;28;45393;-57
2022/12/30 09:33:18;;;;;;;;;4.33;2.00;;;;;8.82;85.35;100256.25;4975535;28;45571;-56
2022/12/30 09:35:43;;;;;;;;;4.00;2.00;;;;;8.83;86.45;100243.81;4976452;28;46190;-60
2022/12/30 09:38:08;;;;;;;;;6.00;2.67;;;;;8.84;86.72;100240.19;4976422;28;45277;-48
2022/12/30 09:40:56;;;;;;;;;3.00;3.00;;;;;8.64;88.00;100207.66;4976585;28;45435;-58
2022/12/30 09:43:21;;;;;;;;;1.33;1.33;;;;;8.79;87.24;100215.94;4976684;28;45317;-50
2022/12/30 09:46:08;;;;;;;;;5.00;1.00;;;;;8.76;88.89;100235.59;4976161;28;46078;-53
2022/12/30 09:48:42;;;;;;;;;2.67;2.67;;;;;8.84;86.84;100211.00;4976306;28;45273;-57
2022/12/30 09:51:13;;;;;;;;;14.00;12.00;;;;;8.78;88.52;100209.78;4976315;28;45399;-50
2022/12/30 09:53:54;;;;;;;;;3.33;2.00;;;;;8.85;88.46;100194.09;4975333;28;45437;-50
2022/12/30 09:56:33;;;;;;;;;7.67;5.00;;;;;8.88;88.41;100196.47;4975802;28;45541;-49
2022/12/30 09:59:05;;;;;;;;;6.67;3.67;;;;;8.90;88.44;100194.53;4976091;28;45341;-50
2022/12/30 10:01:43;;;;;;;;;7.00;5.00;;;;;8.91;88.34;100233.31;4976141;28;45354;-48
2022/12/30 10:04:14;;;;;;;;;3.00;2.00;;;;;8.92;88.07;100180.09;4976260;28;45331;-52
2022/12/30 10:07:02;;;;;;;;;3.67;3.67;;;;;8.93;89.20;100165.00;4975842;28;45351;-50
2022/12/30 10:09:49;;;;;;;;;6.00;2.00;;;;;8.93;90.71;100149.09;4975798;28;45477;-49
2022/12/30 10:12:23;;;;;;;;;5.67;3.00;;;;;8.95;90.87;100160.41;4975987;28;45339;-55
2022/12/30 10:15:01;;;;;;;;;1.67;1.67;;;;;8.96;90.25;100148.81;4976282;28;45479;-50
2022/12/30 10:17:45;;;;;;;;;4.33;4.33;;;;;8.98;90.29;100145.03;4975876;28;45986;-55
2022/12/30 10:20:39;;;;;;;;;2.50;2.50;;;;;9.00;90.30;100129.78;4975790;28;45433;-51
2022/12/30 10:23:23;;;;;;;;;1.33;1.33;;;;;9.00;90.96;100110.38;4967566;28;45368;-51
2022/12/30 10:26:14;;;;;;;;;2.00;2.00;;;;;9.03;91.82;100107.44;4976248;28;45368;-55
2022/12/30 10:28:47;;;;;;;;;2.00;1.00;;;;;9.04;91.20;100105.59;4975226;28;46381;-49
2022/12/30 10:31:20;;;;;;;;;5.33;5.00;;;;;9.02;92.63;100103.13;4975593;28;45270;-58
2022/12/30 10:33:53;;;;;;;;;6.00;2.00;;;;;9.04;92.41;100082.56;4975712;28;45317;-51
2022/12/30 10:36:35;;;;;;;;;2.67;1.00;;;;;9.17;91.98;100128.09;4976032;28;45298;-54
2022/12/30 10:39:14;;;;;;;;;5.00;3.00;;;;;9.24;91.87;100085.88;4975517;28;46046;-56
2022/12/30 10:42:11;;;;;;;;;2.00;2.00;;;;;9.31;93.33;100086.91;4975740;28;45545;-61
2022/12/30 10:44:56;;;;;;;;;0.67;0.67;;;;;9.39;92.32;100097.59;4974573;28;45394;-49
2022/12/30 10:47:28;;;;;;;;;1.00;0.67;;;;;9.48;93.83;100082.56;4975921;28;45465;-53
2022/12/30 10:50:02;;;;;;;;;1.00;1.00;;;;;9.55;93.89;100072.97;4975429;28;47117;-49
2022/12/30 10:52:27;;;;;;;;;3.00;1.00;;;;;9.61;92.35;100114.03;4975426;28;45436;-51
2022/12/30 10:54:53;;;;;;;;;1.33;1.00;;;;;9.59;93.52;100089.44;4975706;28;45405;-51
2022/12/30 10:57:24;;;;;;;;;1.67;1.67;;;;;9.74;93.43;100090.53;4975858;28;45407;-51
2022/12/30 10:59:50;;;;;;;;;7.00;2.00;;;;;9.83;92.28;100049.75;4975319;28;46359;-48
2022/12/30 11:02:24;;;;;;;;;2.33;2.00;;;;;9.89;92.63;100051.75;4975569;28;45459;-50
2022/12/30 11:04:50;;;;;;;;;1.33;1.33;;;;;9.96;93.06;100046.66;4975279;28;45369;-51
2022/12/30 11:07:16;;;;;;;;;2.00;2.00;;;;;9.96;93.28;100026.22;4975620;28;45377;-49
2022/12/30 11:09:45;;;;;;;;;5.00;2.00;;;;;10.07;93.13;100029.56;4975474;28;46514;-50
2022/12/30 11:15:19;;;;;;;;;1.00;1.00;;;;;10.19;92.66;100013.16;4975248;28;45473;-60
2022/12/30 11:17:47;;;;;;;;;2.00;2.00;;;;;10.22;93.11;100062.50;4975344;28;45385;-56
2022/12/30 11:20:13;;;;;;;;;0.67;0.67;;;;;10.28;92.25;100010.56;4975082;28;46063;-50
2022/12/30 11:23:06;;;;;;;;;1.00;1.00;;;;;10.32;92.17;100036.66;4975141;28;45373;-51
2022/12/30 11:25:36;;;;;;;;;2.00;0.67;;;;;10.38;92.07;100030.69;4974701;28;45415;-49
2022/12/30 11:28:13;;;;;;;;;0.67;0.67;;;;;10.47;92.28;100019.06;4975411;28;45414;-51
2022/12/30 11:30:56;;;;;;;;;2.00;1.00;;;;;10.52;91.91;100002.63;4974963;28;47117;-58
2022/12/30 11:33:28;;;;;;;;;3.00;2.00;;;;;10.57;91.89;99994.97;4975109;28;45389;-50
2022/12/30 11:36:10;;;;;;;;;2.00;0.33;;;;;10.62;92.26;100019.28;4975260;28;45256;-55
2022/12/30 11:38:38;;;;;;;;;0.00;0.00;;;;;10.55;92.50;99991.66;4975459;28;45342;-63
2022/12/30 11:41:15;;;;;;;;;0.67;0.67;;;;;10.70;90.99;100002.47;4974718;28;46209;-57
2022/12/30 11:43:41;;;;;;;;;0.00;0.00;;;;;10.72;92.22;99993.34;4975023;28;45528;-55
2022/12/30 11:46:10;;;;;;;;;0.00;0.00;;;;;10.78;92.88;99967.06;4975133;28;45329;-52
2022/12/30 11:48:45;;;;;;;;;1.00;1.00;;;;;10.81;92.58;99959.59;4974902;28;45227;-49
2022/12/30 11:51:18;;;;;;;;;0.33;0.33;;;;;10.85;91.81;100008.81;4974908;28;46287;-47
2022/12/30 11:53:44;;;;;;;;;0.00;0.00;;;;;10.89;92.64;99977.38;4975134;28;45273;-56
2022/12/30 11:56:10;;;;;;;;;2.33;1.67;;;;;10.93;91.82;99989.34;4974903;28;45296;-52
2022/12/30 11:58:38;;;;;;;;;1.67;0.00;;;;;10.95;92.60;99993.47;4975260;28;45352;-61
2022/12/30 12:01:10;;;;;;;;;1.00;1.00;;;;;10.97;92.19;99972.88;4974811;28;45391;-54
2022/12/30 12:03:52;;;;;;;;;0.00;0.00;;;;;10.97;91.85;99977.38;4974666;28;45215;-59
2022/12/30 12:06:17;;;;;;;;;0.00;0.00;;;;;10.98;92.29;99955.91;4974679;28;45406;-59
2022/12/30 12:08:51;;;;;;;;;0.00;0.00;;;;;10.92;92.54;99956.59;4974775;28;45420;-62
2022/12/30 12:11:27;;;;;;;;;14.33;12.00;;;;;11.01;93.53;99959.25;4974506;28;46476;-53
2022/12/30 12:14:16;;;;;;;;;0.00;0.00;;;;;11.09;92.09;99975.19;4974389;28;45460;-57
2022/12/30 12:16:51;;;;;;;;;2.67;0.33;;;;;11.14;92.55;99989.66;4973539;28;45271;-50
2022/12/30 12:19:33;;;;;;;;;0.00;0.00;;;;;11.18;92.71;99966.19;4974682;28;45327;-51
2022/12/30 12:22:04;;;;;;;;;0.00;0.00;;;;;11.22;92.47;99980.81;4974352;28;45548;-54
2022/12/30 12:24:35;;;;;;;;;0.33;0.33;;;;;11.23;93.48;99967.34;4974393;28;45420;-59
2022/12/30 12:27:05;;;;;;;;;5.33;3.00;;;;;11.21;93.45;99953.38;4974717;28;45242;-50
2022/12/30 12:29:33;;;;;;;;;3.00;1.00;;;;;11.33;93.30;99955.66;4974550;28;45362;-61